createdAt,value
2022-09-23T00:00:49.897Z,100928.203125
2022-09-23T00:01:49.691Z,100927.12109375
2022-09-23T00:02:49.529Z,100926.51171875
2022-09-23T00:03:49.519Z,100927.31640625
2022-09-23T00:04:49.506Z,100926.234375
2022-09-23T00:05:49.872Z,100929.44921875
2022-09-23T00:06:49.962Z,100927.109375
2022-09-23T00:07:49.668Z,100927.85546875
2022-09-23T00:08:49.792Z,100930.2109375
2022-09-23T00:09:49.576Z,100927.3828125
2022-09-23T00:10:55.658Z,100928.6328125
2022-09-23T00:11:49.643Z,100930.52734375
2022-09-23T00:12:49.590Z,100928.28515625
2022-09-23T00:13:49.599Z,100928.87890625
2022-09-23T00:14:49.579Z,100925.53125
2022-09-23T00:15:49.951Z,100923.08203125
2022-09-23T00:16:49.755Z,100924.390625
2022-09-23T00:17:49.535Z,100921.45703125
2022-09-23T00:18:49.542Z,100928.03515625
2022-09-23T00:19:49.627Z,100925.98046875
2022-09-23T00:20:49.880Z,100928.37109375
2022-09-23T00:21:55.560Z,100926.4765625
2022-09-23T00:22:49.710Z,100926.55078125
2022-09-23T00:23:49.616Z,100927.00390625
2022-09-23T00:24:49.515Z,100926.4453125
2022-09-23T00:25:49.960Z,100924.20703125
2022-09-23T00:26:49.593Z,100925.23828125
2022-09-23T00:27:49.628Z,100926.76171875
2022-09-23T00:28:49.626Z,100925.71875
2022-09-23T00:29:49.616Z,100925.86328125
2022-09-23T00:30:50.043Z,100923.5
2022-09-23T00:31:49.740Z,100922.359375
2022-09-23T00:32:52.654Z,100921.22265625
2022-09-23T00:33:49.599Z,100925.48828125
2022-09-23T00:34:49.644Z,100922.6640625
2022-09-23T00:35:49.894Z,100924.0234375
2022-09-23T00:36:49.887Z,100922.265625
2022-09-23T00:37:49.594Z,100919.375
2022-09-23T00:38:49.603Z,100921.828125
2022-09-23T00:39:49.654Z,100918.8046875
2022-09-23T00:40:49.947Z,100922.40234375
2022-09-23T00:41:49.679Z,100923.64453125
2022-09-23T00:42:49.515Z,100920.8984375
2022-09-23T00:43:52.563Z,100918.26171875
2022-09-23T00:44:49.614Z,100916.48046875
2022-09-23T00:45:49.986Z,100917.83984375
2022-09-23T00:46:49.637Z,100914.69140625
2022-09-23T00:47:49.508Z,100913.43359375
2022-09-23T00:48:49.497Z,100913.15234375
2022-09-23T00:49:49.515Z,100913.73046875
2022-09-23T00:50:49.962Z,100915.1328125
2022-09-23T00:51:49.878Z,100917.36328125
2022-09-23T00:52:49.733Z,100919.4296875
2022-09-23T00:53:49.737Z,100923.66015625
2022-09-23T00:54:52.564Z,100918.203125
2022-09-23T00:55:49.876Z,100917.14453125
2022-09-23T00:56:49.696Z,100921.54296875
2022-09-23T00:57:49.593Z,100916.31640625
2022-09-23T00:58:49.649Z,100915.3828125
2022-09-23T00:59:49.574Z,100918.02734375
2022-09-23T01:00:49.887Z,100917.65625
2022-09-23T01:01:49.740Z,100913.15234375
2022-09-23T01:02:49.714Z,100913.75390625
2022-09-23T01:03:49.668Z,100912.6953125
2022-09-23T01:04:49.502Z,100914.7109375
2022-09-23T01:05:55.576Z,100910.96484375
2022-09-23T01:06:49.885Z,100910.9140625
2022-09-23T01:07:49.700Z,100907.53515625
2022-09-23T01:08:49.510Z,100906.99609375
2022-09-23T01:09:49.525Z,100908.5234375
2022-09-23T01:10:49.886Z,100908.09375
2022-09-23T01:11:49.551Z,100904.50390625
2022-09-23T01:12:49.502Z,100904.01171875
2022-09-23T01:13:49.657Z,100902.86328125
2022-09-23T01:14:49.627Z,100901.00390625
2022-09-23T01:15:49.945Z,100898.93359375
2022-09-23T01:16:52.759Z,100899.54296875
2022-09-23T01:17:49.655Z,100898.98046875
2022-09-23T01:18:49.534Z,100897.91796875
2022-09-23T01:19:49.615Z,100899.32421875
2022-09-23T01:20:49.875Z,100897.5703125
2022-09-23T01:21:49.982Z,100896.08984375
2022-09-23T01:22:49.618Z,100898.16015625
2022-09-23T01:23:49.678Z,100898.0625
2022-09-23T01:24:49.707Z,100895.11328125
2022-09-23T01:25:49.945Z,100891.953125
2022-09-23T01:26:49.604Z,100891.80078125
2022-09-23T01:27:52.519Z,100892.93359375
2022-09-23T01:28:49.595Z,100890.69140625
2022-09-23T01:29:49.514Z,100886.0390625
2022-09-23T01:30:50.002Z,100886.59375
2022-09-23T01:31:49.593Z,100883.8671875
2022-09-23T01:32:49.517Z,100882.875
2022-09-23T01:33:49.530Z,100885.20703125
2022-09-23T01:34:49.520Z,100886.359375
2022-09-23T01:35:49.956Z,100884.41015625
2022-09-23T01:36:49.883Z,100885.9140625
2022-09-23T01:37:49.604Z,100885.41015625
2022-09-23T01:38:52.602Z,100886.28125
2022-09-23T01:39:49.576Z,100889
2022-09-23T01:40:50.071Z,100887.76953125
2022-09-23T01:41:49.698Z,100886.28125
2022-09-23T01:42:49.517Z,100893.140625
2022-09-23T01:43:49.564Z,100890.25390625
2022-09-23T01:44:49.667Z,100888.64453125
2022-09-23T01:45:49.947Z,100889.4609375
2022-09-23T01:46:49.718Z,100890.00390625
2022-09-23T01:47:49.719Z,100885.2109375
2022-09-23T01:48:49.605Z,100880.8828125
2022-09-23T01:49:52.625Z,100881.4140625
2022-09-23T01:50:49.883Z,100885.0234375
2022-09-23T01:51:49.878Z,100885.4921875
2022-09-23T01:52:49.584Z,100880.6796875
2022-09-23T01:53:49.524Z,100880.59375
2022-09-23T01:54:49.515Z,100883.12109375
2022-09-23T01:55:49.884Z,100882.46484375
2022-09-23T01:56:49.657Z,100880.2890625
2022-09-23T01:57:49.709Z,100880.64453125
2022-09-23T01:58:49.712Z,100881.4609375
2022-09-23T01:59:49.589Z,100881.3515625
2022-09-23T02:00:52.748Z,100876.84375
2022-09-23T02:01:49.669Z,100878.671875
2022-09-23T02:02:49.802Z,100877.7890625
2022-09-23T02:03:49.587Z,100876.88671875
2022-09-23T02:04:49.632Z,100875.24609375
2022-09-23T02:05:50.062Z,100878.140625
2022-09-23T02:06:49.874Z,100872.62890625
2022-09-23T02:07:49.622Z,100877.015625
2022-09-23T02:08:49.577Z,100874.328125
2022-09-23T02:09:49.644Z,100876.40625
2022-09-23T02:10:49.878Z,100872.859375
2022-09-23T02:11:52.670Z,100874.1640625
2022-09-23T02:12:49.602Z,100872.9453125
2022-09-23T02:13:49.502Z,100871.0625
2022-09-23T02:14:49.520Z,100872.40625
2022-09-23T02:15:49.939Z,100870.34765625
2022-09-23T02:16:49.697Z,100869.58203125
2022-09-23T02:17:49.504Z,100869.6953125
2022-09-23T02:18:49.524Z,100870.7890625
2022-09-23T02:19:49.635Z,100870.93359375
2022-09-23T02:20:49.869Z,100869.46484375
2022-09-23T02:21:49.884Z,100872.82421875
2022-09-23T02:22:52.541Z,100869.828125
2022-09-23T02:23:49.685Z,100868.703125
2022-09-23T02:24:49.703Z,100871.61328125
2022-09-23T02:25:49.887Z,100871.2890625
2022-09-23T02:26:49.710Z,100874.0078125
2022-09-23T02:27:49.673Z,100870.74609375
2022-09-23T02:28:52.517Z,100874.0625
2022-09-23T02:29:49.691Z,100868.83984375
2022-09-23T02:30:49.949Z,100869.43359375
2022-09-23T02:31:49.806Z,100866.734375
2022-09-23T02:32:49.572Z,100862.65625
2022-09-23T02:33:49.582Z,100865.69921875
2022-09-23T02:34:49.509Z,100865.6484375
2022-09-23T02:35:49.943Z,100863.57421875
2022-09-23T02:36:49.881Z,100864.5546875
2022-09-23T02:37:49.619Z,100864.93359375
2022-09-23T02:38:49.533Z,100863.671875
2022-09-23T02:39:52.580Z,100863.72265625
2022-09-23T02:40:49.915Z,100860.73828125
2022-09-23T02:41:49.600Z,100862.04296875
2022-09-23T02:42:49.602Z,100862.59765625
2022-09-23T02:43:49.605Z,100863.0625
2022-09-23T02:44:49.658Z,100863.00390625
2022-09-23T02:45:49.732Z,100864.53125
2022-09-23T02:46:49.607Z,100863.69921875
2022-09-23T02:47:49.597Z,100863.76171875
2022-09-23T02:48:49.720Z,100862.234375
2022-09-23T02:49:49.707Z,100866.671875
2022-09-23T02:50:55.616Z,100866.32421875
2022-09-23T02:51:49.984Z,100861.3828125
2022-09-23T02:52:49.590Z,100856.6328125
2022-09-23T02:53:49.511Z,100857.765625
2022-09-23T02:54:49.614Z,100851.66015625
2022-09-23T02:55:49.881Z,100852.58203125
2022-09-23T02:56:49.515Z,100853.44921875
2022-09-23T02:57:49.498Z,100852.71875
2022-09-23T02:58:49.621Z,100852.1484375
2022-09-23T02:59:49.512Z,100850.26171875
2022-09-23T03:00:49.653Z,100848.95703125
2022-09-23T03:01:52.581Z,100850.84375
2022-09-23T03:02:49.731Z,100848.96484375
2022-09-23T03:03:49.587Z,100849.4375
2022-09-23T03:04:49.546Z,100843.58203125
2022-09-23T03:05:49.958Z,100847.71875
2022-09-23T03:06:49.880Z,100840.09375
2022-09-23T03:07:49.649Z,100841.7109375
2022-09-23T03:08:49.602Z,100839.92578125
2022-09-23T03:09:49.597Z,100835.6171875
2022-09-23T03:10:49.957Z,100834.29296875
2022-09-23T03:11:49.708Z,100837.1015625
2022-09-23T03:12:52.549Z,100836.12109375
2022-09-23T03:13:49.611Z,100831.640625
2022-09-23T03:14:49.559Z,100832.9453125
2022-09-23T03:15:49.944Z,100831.87109375
2022-09-23T03:16:49.640Z,100833.26953125
2022-09-23T03:17:49.628Z,100833.4765625
2022-09-23T03:18:49.623Z,100831.34765625
2022-09-23T03:19:49.616Z,100827.68359375
2022-09-23T03:20:49.882Z,100828.73046875
2022-09-23T03:21:49.878Z,100826.6171875
2022-09-23T03:22:49.593Z,100829.3828125
2022-09-23T03:23:52.529Z,100824.30859375
2022-09-23T03:24:53.744Z,100825.78515625
2022-09-23T03:25:49.946Z,100824.3984375
2022-09-23T03:26:49.587Z,100825.37109375
2022-09-23T03:27:49.607Z,100823.5625
2022-09-23T03:28:49.621Z,100824.3359375
2022-09-23T03:29:49.504Z,100823.41796875
2022-09-23T03:30:49.947Z,100826.1875
2022-09-23T03:31:49.796Z,100827.90625
2022-09-23T03:32:49.580Z,100828.1015625
2022-09-23T03:33:49.520Z,100828.6953125
2022-09-23T03:34:52.630Z,100829.50390625
2022-09-23T03:35:50.100Z,100828.23828125
2022-09-23T03:36:49.870Z,100826.65234375
2022-09-23T03:37:49.691Z,100826.8671875
2022-09-23T03:38:49.620Z,100828.14453125
2022-09-23T03:39:49.702Z,100826.39453125
2022-09-23T03:40:49.701Z,100825.78515625
2022-09-23T03:41:49.654Z,100822.69921875
2022-09-23T03:42:49.610Z,100822.86328125
2022-09-23T03:43:49.612Z,100821.59375
2022-09-23T03:44:49.590Z,100818.8828125
2022-09-23T03:45:52.650Z,100818.4375
2022-09-23T03:46:49.762Z,100819.5703125
2022-09-23T03:47:49.618Z,100820.1796875
2022-09-23T03:48:49.609Z,100817.11328125
2022-09-23T03:49:49.517Z,100820.0703125
2022-09-23T03:50:49.675Z,100820.77734375
2022-09-23T03:51:49.881Z,100819.8125
2022-09-23T03:52:49.658Z,100819.88671875
2022-09-23T03:53:49.664Z,100822.84765625
2022-09-23T03:54:49.635Z,100817.83984375
2022-09-23T03:55:49.872Z,100817.55859375
2022-09-23T03:56:52.649Z,100818.87109375
2022-09-23T03:57:49.575Z,100817.4609375
2022-09-23T03:58:49.630Z,100818.27734375
2022-09-23T03:59:49.600Z,100818.44921875
2022-09-23T04:00:50.064Z,100815.44140625
2022-09-23T04:01:49.747Z,100812.0234375
2022-09-23T04:02:49.615Z,100808.6484375
2022-09-23T04:03:49.589Z,100806.09765625
2022-09-23T04:04:49.633Z,100807.3359375
2022-09-23T04:05:49.626Z,100805.21875
2022-09-23T04:06:49.884Z,100802.703125
2022-09-23T04:07:52.544Z,100802.4140625
2022-09-23T04:08:49.656Z,100804.8046875
2022-09-23T04:09:49.633Z,100806.21875
2022-09-23T04:10:54.137Z,100807.62890625
2022-09-23T04:11:49.605Z,100800.99609375
2022-09-23T04:12:49.618Z,100804.51953125
2022-09-23T04:13:49.638Z,100807.0625
2022-09-23T04:14:49.628Z,100804.84765625
2022-09-23T04:15:49.878Z,100806.84765625
2022-09-23T04:16:49.744Z,100809.5859375
2022-09-23T04:17:49.590Z,100801.10546875
2022-09-23T04:18:52.588Z,100802.7421875
2022-09-23T04:19:49.674Z,100803.421875
2022-09-23T04:20:49.946Z,100808.390625
2022-09-23T04:21:49.886Z,100801.43359375
2022-09-23T04:22:49.601Z,100802.91015625
2022-09-23T04:23:49.632Z,100799.81640625
2022-09-23T04:24:49.626Z,100794.8203125
2022-09-23T04:25:49.954Z,100795.92578125
2022-09-23T04:26:49.746Z,100795.9296875
2022-09-23T04:27:49.596Z,100795.08984375
2022-09-23T04:28:49.521Z,100799.05078125
2022-09-23T04:29:52.561Z,100794.9296875
2022-09-23T04:30:49.871Z,100792.23828125
2022-09-23T04:31:49.657Z,100796.89453125
2022-09-23T04:32:49.543Z,100796.1328125
2022-09-23T04:33:49.525Z,100790.87890625
2022-09-23T04:34:49.519Z,100788.82421875
2022-09-23T04:35:49.871Z,100790.36328125
2022-09-23T04:36:49.948Z,100791.87890625
2022-09-23T04:37:49.737Z,100789.53125
2022-09-23T04:38:49.687Z,100793.57421875
2022-09-23T04:39:49.579Z,100791.9140625
2022-09-23T04:40:52.739Z,100792.78125
2022-09-23T04:41:49.713Z,100799.2421875
2022-09-23T04:42:49.603Z,100803.484375
2022-09-23T04:43:49.498Z,100798.98046875
2022-09-23T04:44:51.086Z,100798.15234375
2022-09-23T04:45:49.879Z,100801.47265625
2022-09-23T04:46:49.733Z,100803.33203125
2022-09-23T04:47:49.632Z,100801.671875
2022-09-23T04:48:49.671Z,100801.9296875
2022-09-23T04:49:49.665Z,100803.125
2022-09-23T04:50:49.874Z,100802.32421875
2022-09-23T04:51:55.687Z,100805.375
2022-09-23T04:52:49.701Z,100803.5859375
2022-09-23T04:53:49.530Z,100801.5625
2022-09-23T04:54:49.497Z,100803.68359375
2022-09-23T04:55:49.943Z,100802.046875
2022-09-23T04:56:49.635Z,100798.71875
2022-09-23T04:57:49.611Z,100802.88671875
2022-09-23T04:58:49.671Z,100799.34375
2022-09-23T04:59:49.705Z,100796.0078125
2022-09-23T05:00:49.765Z,100792.875
2022-09-23T05:01:49.649Z,100794.77734375
2022-09-23T05:02:52.651Z,100793.60546875
2022-09-23T05:03:49.682Z,100799.58984375
2022-09-23T05:04:49.603Z,100797.46875
2022-09-23T05:05:49.950Z,100805.4921875
2022-09-23T05:06:50.098Z,100799.234375
2022-09-23T05:07:49.679Z,100798.84765625
2022-09-23T05:08:49.505Z,100798.8515625
2022-09-23T05:09:49.517Z,100797.67578125
2022-09-23T05:10:49.612Z,100795.890625
2022-09-23T05:11:49.720Z,100798.75390625
2022-09-23T05:12:52.444Z,100798.8515625
2022-09-23T05:13:52.555Z,100798.09765625
2022-09-23T05:14:49.662Z,100793.328125
2022-09-23T05:15:49.998Z,100795.296875
2022-09-23T05:16:49.594Z,100801.10546875
2022-09-23T05:17:49.627Z,100799.92578125
2022-09-23T05:18:49.584Z,100794.76953125
2022-09-23T05:19:49.499Z,100795.05078125
2022-09-23T05:20:49.956Z,100794.83203125
2022-09-23T05:21:49.884Z,100794.20703125
2022-09-23T05:22:49.735Z,100790.7265625
2022-09-23T05:23:49.700Z,100795.32421875
2022-09-23T05:24:52.698Z,100794.296875
2022-09-23T05:25:49.878Z,100796.7734375
2022-09-23T05:26:49.739Z,100794.28515625
2022-09-23T05:27:49.599Z,100796.671875
2022-09-23T05:28:49.521Z,100795.04296875
2022-09-23T05:29:49.511Z,100796.3046875
2022-09-23T05:30:49.877Z,100796.3828125
2022-09-23T05:31:49.736Z,100800.19140625
2022-09-23T05:32:49.711Z,100800.26171875
2022-09-23T05:33:49.518Z,100802.44140625
2022-09-23T05:34:49.509Z,100799.7578125
2022-09-23T05:35:55.607Z,100799.40234375
2022-09-23T05:36:49.636Z,100798.09375
2022-09-23T05:37:49.533Z,100799.625
2022-09-23T05:38:49.501Z,100798.01953125
2022-09-23T05:39:49.686Z,100801.0078125
2022-09-23T05:40:49.602Z,100795.7421875
2022-09-23T05:41:49.523Z,100795.8671875
2022-09-23T05:42:49.615Z,100797.89453125
2022-09-23T05:43:49.617Z,100797.20703125
2022-09-23T05:44:49.522Z,100801.0859375
2022-09-23T05:45:49.951Z,100802.265625
2022-09-23T05:46:52.717Z,100802.3046875
2022-09-23T05:47:49.691Z,100802.9765625
2022-09-23T05:48:49.605Z,100809.0234375
2022-09-23T05:49:59.577Z,100807.5234375
2022-09-23T05:50:49.946Z,100806.828125
2022-09-23T05:51:49.877Z,100808.7265625
2022-09-23T05:52:49.613Z,100805.62109375
2022-09-23T05:53:49.599Z,100806.5546875
2022-09-23T05:54:49.629Z,100807.91796875
2022-09-23T05:55:50.004Z,100806.015625
2022-09-23T05:56:49.723Z,100805.47265625
2022-09-23T05:57:52.557Z,100806.8359375
2022-09-23T05:58:49.592Z,100806.94921875
2022-09-23T05:59:49.498Z,100804.25
2022-09-23T06:00:49.947Z,100802.9921875
2022-09-23T06:01:52.082Z,100803.3671875
2022-09-23T06:02:49.571Z,100803.0546875
2022-09-23T06:03:49.525Z,100804.41015625
2022-09-23T06:04:49.624Z,100808.37890625
2022-09-23T06:05:49.951Z,100803.75390625
2022-09-23T06:06:49.878Z,100806.13671875
2022-09-23T06:07:49.608Z,100800.390625
2022-09-23T06:08:52.666Z,100802.44140625
2022-09-23T06:09:49.726Z,100800.46875
2022-09-23T06:10:54.193Z,100802.2265625
2022-09-23T06:11:49.726Z,100804.12890625
2022-09-23T06:12:49.592Z,100802.4375
2022-09-23T06:13:49.506Z,100802.03515625
2022-09-23T06:14:49.553Z,100803.01171875
2022-09-23T06:15:50.007Z,100793.60546875
2022-09-23T06:16:49.708Z,100792.78125
2022-09-23T06:17:49.681Z,100794.86328125
2022-09-23T06:18:49.623Z,100794.7578125
2022-09-23T06:19:52.683Z,100796.6640625
2022-09-23T06:20:49.888Z,100799.82421875
2022-09-23T06:21:49.705Z,100798.4453125
2022-09-23T06:22:52.685Z,100795.859375
2022-09-23T06:23:50.862Z,100790.91015625
2022-09-23T06:24:49.504Z,100792.3203125
2022-09-23T06:25:49.978Z,100791.56640625
2022-09-23T06:26:49.513Z,100789.8046875
2022-09-23T06:27:49.714Z,100789.8515625
2022-09-23T06:28:49.687Z,100795.45703125
2022-09-23T06:29:49.631Z,100796.50390625
2022-09-23T06:30:55.705Z,100799.640625
2022-09-23T06:31:49.816Z,100798.96484375
2022-09-23T06:32:49.670Z,100799.84375
2022-09-23T06:33:49.976Z,100800.60546875
2022-09-23T06:34:51.854Z,100799.0390625
2022-09-23T06:35:55.380Z,100799.52734375
2022-09-23T06:36:49.880Z,100799.16015625
2022-09-23T06:37:49.639Z,100796.296875
2022-09-23T06:38:49.734Z,100795.71875
2022-09-23T06:39:49.728Z,100795.93359375
2022-09-23T06:40:49.772Z,100795.015625
2022-09-23T06:41:52.662Z,100794.03125
2022-09-23T06:42:52.368Z,100795.921875
2022-09-23T06:43:49.520Z,100793.953125
2022-09-23T06:44:49.518Z,100796.08203125
2022-09-23T06:45:49.955Z,100797.69140625
2022-09-23T06:46:49.977Z,100793.89453125
2022-09-23T06:47:49.585Z,100798.1015625
2022-09-23T06:48:49.491Z,100795.5625
2022-09-23T06:49:49.554Z,100797.359375
2022-09-23T06:50:49.950Z,100798.94140625
2022-09-23T06:51:49.880Z,100798.69140625
2022-09-23T06:52:52.574Z,100798.8125
2022-09-23T06:53:49.748Z,100792.83203125
2022-09-23T06:54:49.617Z,100797.96875
2022-09-23T06:55:49.953Z,100798.8671875
2022-09-23T06:56:49.575Z,100798.34765625
2022-09-23T06:57:49.517Z,100798.67578125
2022-09-23T06:58:49.650Z,100797.72265625
2022-09-23T06:59:49.588Z,100799.02734375
2022-09-23T07:00:49.954Z,100793.3125
2022-09-23T07:01:49.819Z,100797.19140625
2022-09-23T07:02:49.792Z,100792.79296875
2022-09-23T07:03:52.672Z,100792.2890625
2022-09-23T07:04:49.721Z,100791.953125
2022-09-23T07:05:49.889Z,100792.9375
2022-09-23T07:06:49.875Z,100793.92578125
2022-09-23T07:07:49.593Z,100793.8515625
2022-09-23T07:08:49.645Z,100797.50390625
2022-09-23T07:09:49.500Z,100792.1015625
2022-09-23T07:10:49.551Z,100796.91015625
2022-09-23T07:11:51.195Z,100798.13671875
2022-09-23T07:12:49.736Z,100799.15234375
2022-09-23T07:13:49.643Z,100797.8515625
2022-09-23T07:14:52.627Z,100800.109375
2022-09-23T07:15:49.947Z,100800.42578125
2022-09-23T07:16:49.736Z,100800.01953125
2022-09-23T07:17:49.710Z,100805.37109375
2022-09-23T07:18:49.603Z,100804.28515625
2022-09-23T07:19:49.630Z,100802.3828125
2022-09-23T07:20:49.884Z,100796.7421875
2022-09-23T07:21:49.960Z,100797.484375
2022-09-23T07:22:49.596Z,100794.51171875
2022-09-23T07:23:49.594Z,100793.1015625
2022-09-23T07:24:49.520Z,100793.3046875
2022-09-23T07:25:55.632Z,100790.23828125
2022-09-23T07:26:49.685Z,100791.88671875
2022-09-23T07:27:49.578Z,100792.4140625
2022-09-23T07:28:49.558Z,100792.41015625
2022-09-23T07:29:49.610Z,100792.953125
2022-09-23T07:30:59.561Z,100798.9765625
2022-09-23T07:31:49.648Z,100795.7109375
2022-09-23T07:32:49.917Z,100797.36328125
2022-09-23T07:33:49.576Z,100794.953125
2022-09-23T07:34:49.620Z,100792.39453125
2022-09-23T07:35:49.693Z,100793.375
2022-09-23T07:36:55.610Z,100793.734375
2022-09-23T07:37:49.630Z,100793.04296875
2022-09-23T07:38:49.534Z,100791.39453125
2022-09-23T07:39:49.664Z,100791.25
2022-09-23T07:40:49.776Z,100786.0859375
2022-09-23T07:41:49.621Z,100780.46875
2022-09-23T07:42:49.516Z,100779.5859375
2022-09-23T07:43:49.639Z,100775.71875
2022-09-23T07:44:49.583Z,100773.47265625
2022-09-23T07:45:49.948Z,100778.81640625
2022-09-23T07:46:49.784Z,100785.87890625
2022-09-23T07:47:52.682Z,100781.875
2022-09-23T07:48:49.727Z,100783.88671875
2022-09-23T07:49:49.708Z,100783.390625
2022-09-23T07:50:49.888Z,100785.1015625
2022-09-23T07:51:49.875Z,100789.04296875
2022-09-23T07:52:49.579Z,100782.92578125
2022-09-23T07:53:49.525Z,100782.828125
2022-09-23T07:54:49.502Z,100783.75
2022-09-23T07:55:49.953Z,100783.4765625
2022-09-23T07:56:49.593Z,100783.640625
2022-09-23T07:57:49.630Z,100791.12109375
2022-09-23T07:58:52.716Z,100795.7734375
2022-09-23T07:59:49.717Z,100795.90234375
2022-09-23T08:00:49.896Z,100794.73046875
2022-09-23T08:01:49.750Z,100795.02734375
2022-09-23T08:02:52.808Z,100797.09375
2022-09-23T08:03:49.618Z,100795.34375
2022-09-23T08:04:49.537Z,100797.8984375
2022-09-23T08:05:49.953Z,100801.58984375
2022-09-23T08:06:49.883Z,100794.9296875
2022-09-23T08:07:49.717Z,100794.0390625
2022-09-23T08:08:53.160Z,100794.4921875
2022-09-23T08:09:52.652Z,100792.4765625
2022-09-23T08:10:49.882Z,100793.55859375
2022-09-23T08:11:49.721Z,100793.671875
2022-09-23T08:12:49.786Z,100792.28515625
2022-09-23T08:13:49.561Z,100790.91796875
2022-09-23T08:14:49.520Z,100789.80859375
2022-09-23T08:15:54.704Z,100790.10546875
2022-09-23T08:16:49.520Z,100791.37890625
2022-09-23T08:17:49.522Z,100790.63671875
2022-09-23T08:18:49.547Z,100788.921875
2022-09-23T08:19:49.525Z,100792.25390625
2022-09-23T08:20:55.622Z,100789.14453125
2022-09-23T08:21:49.881Z,100789.54296875
2022-09-23T08:22:49.608Z,100787.203125
2022-09-23T08:23:49.577Z,100787.11328125
2022-09-23T08:24:50.186Z,100789.88671875
2022-09-23T08:25:49.888Z,100789.3828125
2022-09-23T08:26:49.605Z,100790.94921875
2022-09-23T08:27:49.499Z,100791.0625
2022-09-23T08:28:49.544Z,100788.43359375
2022-09-23T08:29:49.622Z,100791.72265625
2022-09-23T08:30:49.666Z,100791.80859375
2022-09-23T08:31:52.642Z,100789.8515625
2022-09-23T08:32:49.708Z,100790.92578125
2022-09-23T08:33:49.582Z,100788.9765625
2022-09-23T08:34:49.534Z,100789.02734375
2022-09-23T08:35:49.957Z,100788.109375
2022-09-23T08:36:49.878Z,100792.0078125
2022-09-23T08:37:49.523Z,100793.296875
2022-09-23T08:38:49.513Z,100789.9765625
2022-09-23T08:39:49.509Z,100789.1015625
2022-09-23T08:40:49.633Z,100788.29296875
2022-09-23T08:41:49.512Z,100787.83203125
2022-09-23T08:42:52.612Z,100789.703125
2022-09-23T08:43:49.704Z,100786.30078125
2022-09-23T08:44:49.714Z,100786.23828125
2022-09-23T08:45:49.917Z,100784.78125
2022-09-23T08:46:49.674Z,100782.61328125
2022-09-23T08:47:49.584Z,100781.4609375
2022-09-23T08:48:49.631Z,100783.62109375
2022-09-23T08:49:49.938Z,100782.140625
2022-09-23T08:50:49.885Z,100779.61328125
2022-09-23T08:51:49.895Z,100779.953125
2022-09-23T08:52:49.725Z,100780.45703125
2022-09-23T08:53:52.642Z,100777.234375
2022-09-23T08:54:54.548Z,100778.96484375
2022-09-23T08:55:49.877Z,100779.29296875
2022-09-23T08:56:49.591Z,100779.3828125
2022-09-23T08:58:02.400Z,100780.4453125
2022-09-23T08:58:49.613Z,100781.1953125
2022-09-23T08:59:49.650Z,100778.97265625
2022-09-23T09:00:49.948Z,100779.93359375
2022-09-23T09:01:49.707Z,100780.921875
2022-09-23T09:02:49.608Z,100785.0625
2022-09-23T09:03:49.512Z,100779.08984375
2022-09-23T09:04:52.570Z,100777.4765625
2022-09-23T09:05:54.133Z,100773.17578125
2022-09-23T09:06:53.010Z,100776.3828125
2022-09-23T09:07:49.635Z,100778.015625
2022-09-23T09:08:49.523Z,100775.4609375
2022-09-23T09:09:49.611Z,100771.96484375
2022-09-23T09:10:49.610Z,100773.109375
2022-09-23T09:11:49.667Z,100773.0546875
2022-09-23T09:12:49.620Z,100772.0390625
2022-09-23T09:13:49.639Z,100770.8828125
2022-09-23T09:14:49.717Z,100773.15234375
2022-09-23T09:15:55.661Z,100767.1171875
2022-09-23T09:16:59.426Z,100763.32421875
2022-09-23T09:17:49.608Z,100759.84765625
2022-09-23T09:18:49.710Z,100764.42578125
2022-09-23T09:19:49.604Z,100755.55859375
2022-09-23T09:20:49.947Z,100752.30078125
2022-09-23T09:21:49.877Z,100752.10546875
2022-09-23T09:22:49.611Z,100753.4921875
2022-09-23T09:23:49.657Z,100753.453125
2022-09-23T09:24:49.687Z,100754.08203125
2022-09-23T09:25:49.946Z,100754.25390625
2022-09-23T09:26:52.570Z,100751.16015625
2022-09-23T09:27:49.698Z,100757.8046875
2022-09-23T09:28:49.534Z,100756.203125
2022-09-23T09:29:50.167Z,100754.75
2022-09-23T09:30:49.936Z,100756.15625
2022-09-23T09:31:49.608Z,100756.453125
2022-09-23T09:32:49.609Z,100756.9921875
2022-09-23T09:33:49.560Z,100760.125
2022-09-23T09:34:49.611Z,100763.39453125
2022-09-23T09:35:49.952Z,100760.5546875
2022-09-23T09:36:49.880Z,100760.37109375
2022-09-23T09:37:53.586Z,100757.7578125
2022-09-23T09:38:49.749Z,100755.94140625
2022-09-23T09:39:49.693Z,100753.98828125
2022-09-23T09:40:50.011Z,100754.8125
2022-09-23T09:41:49.652Z,100752.39453125
2022-09-23T09:42:49.534Z,100752.3515625
2022-09-23T09:43:49.505Z,100750.828125
2022-09-23T09:44:49.512Z,100745.00390625
2022-09-23T09:45:53.828Z,100744.703125
2022-09-23T09:46:49.700Z,100738.046875
2022-09-23T09:47:49.510Z,100739.16015625
2022-09-23T09:48:52.536Z,100734.17578125
2022-09-23T09:49:49.733Z,100730.34765625
2022-09-23T09:50:49.911Z,100732.16015625
2022-09-23T09:51:49.881Z,100724.9609375
2022-09-23T09:52:49.611Z,100725.32421875
2022-09-23T09:53:49.607Z,100723.69921875
2022-09-23T09:54:49.605Z,100721.53125
2022-09-23T09:55:49.897Z,100724.51953125
2022-09-23T09:56:49.555Z,100719.78515625
2022-09-23T09:57:49.491Z,100719.8515625
2022-09-23T09:58:49.587Z,100715.9609375